sensor_id;sensor_type;location;lat;lon;timestamp;P1;durP1;ratioP1;P2;durP2;ratioP2
81201;SDS011;71068;47.662;-2.750;2023-07-13T00:01:48;5.90;;;1.55;;
81201;SDS011;71068;47.662;-2.750;2023-07-13T00:04:15;4.00;;;1.73;;
81201;SDS011;71068;47.662;-2.750;2023-07-13T00:06:46;12.98;;;2.30;;
81201;SDS011;71068;47.662;-2.750;2023-07-13T00:09:15;4.93;;;1.85;;
81201;SDS011;71068;47.662;-2.750;2023-07-13T00:11:42;3.15;;;1.55;;
81201;SDS011;71068;47.662;-2.750;2023-07-13T00:14:10;2.97;;;1.60;;
81201;SDS011;71068;47.662;-2.750;2023-07-13T00:16:38;5.63;;;2.15;;
81201;SDS011;71068;47.662;-2.750;2023-07-13T00:19:10;3.97;;;2.08;;
81201;SDS011;71068;47.662;-2.750;2023-07-13T00:24:06;3.28;;;1.95;;
81201;SDS011;71068;47.662;-2.750;2023-07-13T00:29:00;6.07;;;2.22;;
81201;SDS011;71068;47.662;-2.750;2023-07-13T00:31:26;4.18;;;1.80;;
81201;SDS011;71068;47.662;-2.750;2023-07-13T00:33:53;5.35;;;1.77;;
81201;SDS011;71068;47.662;-2.750;2023-07-13T00:36:19;5.10;;;2.03;;
81201;SDS011;71068;47.662;-2.750;2023-07-13T00:38:47;5.72;;;1.90;;
81201;SDS011;71068;47.662;-2.750;2023-07-13T00:41:13;4.07;;;2.00;;
81201;SDS011;71068;47.662;-2.750;2023-07-13T00:43:39;5.32;;;2.20;;
81201;SDS011;71068;47.662;-2.750;2023-07-13T00:46:20;8.40;;;2.40;;
81201;SDS011;71068;47.662;-2.750;2023-07-13T00:51:28;6.68;;;2.00;;
81201;SDS011;71068;47.662;-2.750;2023-07-13T00:54:03;4.57;;;2.03;;
81201;SDS011;71068;47.662;-2.750;2023-07-13T00:56:40;5.07;;;1.85;;
81201;SDS011;71068;47.662;-2.750;2023-07-13T00:59:09;8.93;;;2.13;;
81201;SDS011;71068;47.662;-2.750;2023-07-13T01:01:37;7.07;;;1.85;;
81201;SDS011;71068;47.662;-2.750;2023-07-13T01:04:04;5.97;;;2.60;;
81201;SDS011;71068;47.662;-2.750;2023-07-13T01:06:35;4.10;;;1.90;;
81201;SDS011;71068;47.662;-2.750;2023-07-13T01:09:03;5.93;;;2.22;;
81201;SDS011;71068;47.662;-2.750;2023-07-13T01:11:30;10.10;;;1.63;;
81201;SDS011;71068;47.662;-2.750;2023-07-13T01:13:56;5.60;;;1.63;;
81201;SDS011;71068;47.662;-2.750;2023-07-13T01:16:28;5.20;;;1.73;;
81201;SDS011;71068;47.662;-2.750;2023-07-13T01:18:58;3.70;;;1.65;;
81201;SDS011;71068;47.662;-2.750;2023-07-13T01:21:26;4.95;;;1.60;;
81201;SDS011;71068;47.662;-2.750;2023-07-13T01:23:53;5.55;;;2.08;;
81201;SDS011;71068;47.662;-2.750;2023-07-13T01:26:20;10.85;;;2.60;;
81201;SDS011;71068;47.662;-2.750;2023-07-13T01:28:46;9.70;;;2.40;;
81201;SDS011;71068;47.662;-2.750;2023-07-13T01:31:14;4.75;;;1.77;;
81201;SDS011;71068;47.662;-2.750;2023-07-13T01:33:40;2.72;;;2.13;;
81201;SDS011;71068;47.662;-2.750;2023-07-13T01:36:08;4.65;;;1.73;;
81201;SDS011;71068;47.662;-2.750;2023-07-13T01:38:35;4.55;;;1.70;;
81201;SDS011;71068;47.662;-2.750;2023-07-13T01:41:02;5.32;;;1.73;;
81201;SDS011;71068;47.662;-2.750;2023-07-13T01:43:28;2.58;;;1.60;;
81201;SDS011;71068;47.662;-2.750;2023-07-13T01:45:55;7.13;;;2.50;;
81201;SDS011;71068;47.662;-2.750;2023-07-13T01:48:24;9.45;;;2.05;;
81201;SDS011;71068;47.662;-2.750;2023-07-13T01:50:50;6.10;;;2.15;;
81201;SDS011;71068;47.662;-2.750;2023-07-13T01:53:16;7.22;;;1.75;;
81201;SDS011;71068;47.662;-2.750;2023-07-13T01:55:42;14.45;;;1.98;;
81201;SDS011;71068;47.662;-2.750;2023-07-13T01:58:08;6.57;;;1.63;;
81201;SDS011;71068;47.662;-2.750;2023-07-13T02:00:34;4.55;;;1.80;;
81201;SDS011;71068;47.662;-2.750;2023-07-13T02:03:00;10.05;;;1.95;;
81201;SDS011;71068;47.662;-2.750;2023-07-13T02:05:26;7.30;;;1.88;;
81201;SDS011;71068;47.662;-2.750;2023-07-13T02:07:52;4.07;;;1.52;;
81201;SDS011;71068;47.662;-2.750;2023-07-13T02:10:18;5.80;;;1.92;;
81201;SDS011;71068;47.662;-2.750;2023-07-13T02:12:44;7.13;;;2.20;;
81201;SDS011;71068;47.662;-2.750;2023-07-13T02:15:10;5.85;;;2.03;;
81201;SDS011;71068;47.662;-2.750;2023-07-13T02:17:36;12.80;;;1.95;;
81201;SDS011;71068;47.662;-2.750;2023-07-13T02:20:04;8.73;;;2.17;;
81201;SDS011;71068;47.662;-2.750;2023-07-13T02:22:32;4.95;;;2.47;;
81201;SDS011;71068;47.662;-2.750;2023-07-13T02:25:01;5.47;;;1.58;;
81201;SDS011;71068;47.662;-2.750;2023-07-13T02:27:33;4.28;;;1.88;;
81201;SDS011;71068;47.662;-2.750;2023-07-13T02:29:59;5.70;;;1.50;;
81201;SDS011;71068;47.662;-2.750;2023-07-13T02:32:26;5.00;;;1.88;;
81201;SDS011;71068;47.662;-2.750;2023-07-13T02:34:52;8.88;;;1.80;;
81201;SDS011;71068;47.662;-2.750;2023-07-13T02:37:18;7.75;;;2.10;;
81201;SDS011;71068;47.662;-2.750;2023-07-13T02:39:44;4.40;;;1.95;;
81201;SDS011;71068;47.662;-2.750;2023-07-13T02:42:10;5.65;;;1.95;;
81201;SDS011;71068;47.662;-2.750;2023-07-13T02:44:36;5.70;;;2.05;;
81201;SDS011;71068;47.662;-2.750;2023-07-13T02:47:03;7.47;;;2.20;;
81201;SDS011;71068;47.662;-2.750;2023-07-13T02:49:30;4.80;;;1.58;;
81201;SDS011;71068;47.662;-2.750;2023-07-13T02:51:56;5.03;;;1.98;;
81201;SDS011;71068;47.662;-2.750;2023-07-13T02:54:22;3.78;;;1.55;;
81201;SDS011;71068;47.662;-2.750;2023-07-13T02:56:49;4.28;;;1.67;;
81201;SDS011;71068;47.662;-2.750;2023-07-13T02:59:29;5.22;;;1.27;;
81201;SDS011;71068;47.662;-2.750;2023-07-13T03:01:56;4.22;;;1.90;;
81201;SDS011;71068;47.662;-2.750;2023-07-13T03:04:27;11.40;;;2.67;;
81201;SDS011;71068;47.662;-2.750;2023-07-13T03:06:53;5.03;;;1.50;;
81201;SDS011;71068;47.662;-2.750;2023-07-13T03:11:51;6.05;;;2.17;;
81201;SDS011;71068;47.662;-2.750;2023-07-13T03:14:19;8.77;;;2.20;;
81201;SDS011;71068;47.662;-2.750;2023-07-13T03:16:47;4.95;;;1.92;;
81201;SDS011;71068;47.662;-2.750;2023-07-13T03:19:13;7.78;;;1.90;;
81201;SDS011;71068;47.662;-2.750;2023-07-13T03:21:39;5.32;;;1.58;;
81201;SDS011;71068;47.662;-2.750;2023-07-13T03:24:05;2.60;;;1.73;;
81201;SDS011;71068;47.662;-2.750;2023-07-13T03:26:31;5.22;;;1.95;;
81201;SDS011;71068;47.662;-2.750;2023-07-13T03:28:57;4.00;;;1.63;;
81201;SDS011;71068;47.662;-2.750;2023-07-13T03:31:25;5.53;;;2.47;;
81201;SDS011;71068;47.662;-2.750;2023-07-13T03:33:56;11.70;;;2.25;;
81201;SDS011;71068;47.662;-2.750;2023-07-13T03:36:26;9.73;;;2.03;;
81201;SDS011;71068;47.662;-2.750;2023-07-13T03:38:57;4.85;;;2.30;;
81201;SDS011;71068;47.662;-2.750;2023-07-13T03:41:25;5.25;;;2.38;;
81201;SDS011;71068;47.662;-2.750;2023-07-13T03:43:51;5.90;;;2.08;;
81201;SDS011;71068;47.662;-2.750;2023-07-13T03:46:18;5.15;;;2.38;;
81201;SDS011;71068;47.662;-2.750;2023-07-13T03:48:45;6.63;;;2.40;;
81201;SDS011;71068;47.662;-2.750;2023-07-13T03:51:15;5.40;;;1.92;;
81201;SDS011;71068;47.662;-2.750;2023-07-13T03:53:43;2.97;;;1.50;;
81201;SDS011;71068;47.662;-2.750;2023-07-13T03:56:11;6.63;;;2.17;;
81201;SDS011;71068;47.662;-2.750;2023-07-13T03:58:42;7.00;;;2.10;;
81201;SDS011;71068;47.662;-2.750;2023-07-13T04:01:10;3.65;;;1.52;;
81201;SDS011;71068;47.662;-2.750;2023-07-13T04:03:38;6.18;;;2.05;;
81201;SDS011;71068;47.662;-2.750;2023-07-13T04:06:05;3.67;;;1.73;;
81201;SDS011;71068;47.662;-2.750;2023-07-13T04:11:02;5.60;;;1.85;;
81201;SDS011;71068;47.662;-2.750;2023-07-13T04:13:29;1.60;;;1.50;;
81201;SDS011;71068;47.662;-2.750;2023-07-13T04:15:55;2.90;;;1.85;;
81201;SDS011;71068;47.662;-2.750;2023-07-13T04:18:21;5.13;;;1.63;;
81201;SDS011;71068;47.662;-2.750;2023-07-13T04:20:48;4.35;;;1.90;;
81201;SDS011;71068;47.662;-2.750;2023-07-13T04:23:19;2.65;;;1.90;;
81201;SDS011;71068;47.662;-2.750;2023-07-13T04:25:49;5.68;;;2.10;;
81201;SDS011;71068;47.662;-2.750;2023-07-13T04:28:19;8.23;;;1.65;;
81201;SDS011;71068;47.662;-2.750;2023-07-13T04:33:13;8.10;;;1.95;;
81201;SDS011;71068;47.662;-2.750;2023-07-13T04:35:43;5.25;;;1.65;;
81201;SDS011;71068;47.662;-2.750;2023-07-13T04:38:12;3.85;;;1.88;;
81201;SDS011;71068;47.662;-2.750;2023-07-13T04:40:38;6.53;;;1.50;;
81201;SDS011;71068;47.662;-2.750;2023-07-13T04:43:04;5.88;;;1.73;;
81201;SDS011;71068;47.662;-2.750;2023-07-13T04:45:30;5.00;;;1.70;;
81201;SDS011;71068;47.662;-2.750;2023-07-13T04:47:56;10.35;;;1.88;;
81201;SDS011;71068;47.662;-2.750;2023-07-13T04:50:22;2.35;;;1.38;;
81201;SDS011;71068;47.662;-2.750;2023-07-13T04:52:49;4.03;;;1.50;;
81201;SDS011;71068;47.662;-2.750;2023-07-13T04:55:16;6.18;;;1.67;;
81201;SDS011;71068;47.662;-2.750;2023-07-13T04:57:43;5.72;;;1.70;;
81201;SDS011;71068;47.662;-2.750;2023-07-13T05:00:09;5.05;;;1.90;;
81201;SDS011;71068;47.662;-2.750;2023-07-13T05:02:37;8.23;;;2.28;;
81201;SDS011;71068;47.662;-2.750;2023-07-13T05:05:05;7.03;;;2.08;;
81201;SDS011;71068;47.662;-2.750;2023-07-13T05:07:34;4.57;;;2.15;;
81201;SDS011;71068;47.662;-2.750;2023-07-13T05:10:02;5.80;;;1.77;;
81201;SDS011;71068;47.662;-2.750;2023-07-13T05:12:29;6.35;;;1.60;;
81201;SDS011;71068;47.662;-2.750;2023-07-13T05:14:56;7.93;;;2.10;;
81201;SDS011;71068;47.662;-2.750;2023-07-13T05:17:23;3.80;;;1.88;;
81201;SDS011;71068;47.662;-2.750;2023-07-13T05:19:48;10.93;;;1.63;;
81201;SDS011;71068;47.662;-2.750;2023-07-13T05:22:14;7.35;;;1.85;;
81201;SDS011;71068;47.662;-2.750;2023-07-13T05:24:40;4.57;;;2.15;;
81201;SDS011;71068;47.662;-2.750;2023-07-13T05:27:06;6.75;;;2.13;;
81201;SDS011;71068;47.662;-2.750;2023-07-13T05:29:33;2.80;;;1.70;;
81201;SDS011;71068;47.662;-2.750;2023-07-13T05:31:59;4.88;;;1.70;;
81201;SDS011;71068;47.662;-2.750;2023-07-13T05:34:26;5.20;;;1.60;;
81201;SDS011;71068;47.662;-2.750;2023-07-13T05:36:52;9.60;;;1.92;;
81201;SDS011;71068;47.662;-2.750;2023-07-13T05:39:19;5.13;;;2.17;;
81201;SDS011;71068;47.662;-2.750;2023-07-13T05:41:45;5.00;;;1.73;;
81201;SDS011;71068;47.662;-2.750;2023-07-13T05:44:11;5.10;;;2.00;;
81201;SDS011;71068;47.662;-2.750;2023-07-13T05:46:37;7.15;;;1.92;;
81201;SDS011;71068;47.662;-2.750;2023-07-13T05:49:04;4.18;;;1.60;;
81201;SDS011;71068;47.662;-2.750;2023-07-13T05:51:32;5.20;;;1.73;;
81201;SDS011;71068;47.662;-2.750;2023-07-13T05:53:58;7.68;;;2.03;;
81201;SDS011;71068;47.662;-2.750;2023-07-13T05:56:27;5.88;;;2.05;;
81201;SDS011;71068;47.662;-2.750;2023-07-13T05:58:53;4.93;;;1.70;;
81201;SDS011;71068;47.662;-2.750;2023-07-13T06:01:21;12.68;;;2.22;;
81201;SDS011;71068;47.662;-2.750;2023-07-13T06:03:48;2.58;;;2.10;;
81201;SDS011;71068;47.662;-2.750;2023-07-13T06:06:15;3.83;;;2.65;;
81201;SDS011;71068;47.662;-2.750;2023-07-13T06:08:42;11.82;;;2.17;;
81201;SDS011;71068;47.662;-2.750;2023-07-13T06:11:20;6.80;;;1.52;;
81201;SDS011;71068;47.662;-2.750;2023-07-13T06:13:48;15.68;;;2.80;;
81201;SDS011;71068;47.662;-2.750;2023-07-13T06:16:15;5.63;;;2.38;;
81201;SDS011;71068;47.662;-2.750;2023-07-13T06:18:42;9.07;;;2.10;;
81201;SDS011;71068;47.662;-2.750;2023-07-13T06:21:19;8.85;;;2.42;;
81201;SDS011;71068;47.662;-2.750;2023-07-13T06:23:48;7.15;;;2.45;;
81201;SDS011;71068;47.662;-2.750;2023-07-13T06:28:47;9.95;;;3.03;;
81201;SDS011;71068;47.662;-2.750;2023-07-13T06:31:13;12.98;;;1.90;;
81201;SDS011;71068;47.662;-2.750;2023-07-13T06:33:40;3.38;;;1.80;;
81201;SDS011;71068;47.662;-2.750;2023-07-13T06:36:06;5.35;;;2.08;;
81201;SDS011;71068;47.662;-2.750;2023-07-13T06:38:36;7.25;;;1.80;;
81201;SDS011;71068;47.662;-2.750;2023-07-13T06:41:03;6.63;;;2.25;;
81201;SDS011;71068;47.662;-2.750;2023-07-13T06:43:30;5.80;;;2.05;;
81201;SDS011;71068;47.662;-2.750;2023-07-13T06:45:57;5.80;;;2.25;;
81201;SDS011;71068;47.662;-2.750;2023-07-13T06:48:23;5.82;;;1.50;;
81201;SDS011;71068;47.662;-2.750;2023-07-13T06:50:50;7.43;;;2.17;;
81201;SDS011;71068;47.662;-2.750;2023-07-13T06:53:17;4.28;;;1.98;;
81201;SDS011;71068;47.662;-2.750;2023-07-13T06:55:44;8.20;;;2.03;;
81201;SDS011;71068;47.662;-2.750;2023-07-13T06:58:12;4.38;;;2.30;;
81201;SDS011;71068;47.662;-2.750;2023-07-13T07:00:38;9.38;;;2.05;;
81201;SDS011;71068;47.662;-2.750;2023-07-13T07:03:05;5.07;;;2.00;;
81201;SDS011;71068;47.662;-2.750;2023-07-13T07:05:31;8.80;;;2.25;;
81201;SDS011;71068;47.662;-2.750;2023-07-13T07:07:57;4.38;;;2.28;;
81201;SDS011;71068;47.662;-2.750;2023-07-13T07:10:23;8.55;;;2.45;;
81201;SDS011;71068;47.662;-2.750;2023-07-13T07:12:51;4.85;;;2.70;;
81201;SDS011;71068;47.662;-2.750;2023-07-13T07:15:17;3.72;;;1.95;;
81201;SDS011;71068;47.662;-2.750;2023-07-13T07:17:44;5.32;;;1.90;;
81201;SDS011;71068;47.662;-2.750;2023-07-13T07:20:11;2.63;;;1.50;;
81201;SDS011;71068;47.662;-2.750;2023-07-13T07:25:06;8.18;;;1.77;;
81201;SDS011;71068;47.662;-2.750;2023-07-13T07:27:33;8.88;;;2.70;;
81201;SDS011;71068;47.662;-2.750;2023-07-13T07:29:59;6.30;;;1.77;;
81201;SDS011;71068;47.662;-2.750;2023-07-13T07:32:25;8.38;;;1.80;;
81201;SDS011;71068;47.662;-2.750;2023-07-13T07:37:20;1.45;;;1.35;;
81201;SDS011;71068;47.662;-2.750;2023-07-13T07:39:46;4.07;;;1.50;;
81201;SDS011;71068;47.662;-2.750;2023-07-13T07:42:13;3.05;;;1.67;;
81201;SDS011;71068;47.662;-2.750;2023-07-13T07:44:40;7.10;;;1.90;;
81201;SDS011;71068;47.662;-2.750;2023-07-13T07:47:07;7.00;;;1.85;;
81201;SDS011;71068;47.662;-2.750;2023-07-13T07:49:34;12.43;;;2.55;;
81201;SDS011;71068;47.662;-2.750;2023-07-13T07:52:01;10.40;;;2.03;;
81201;SDS011;71068;47.662;-2.750;2023-07-13T07:54:27;6.07;;;2.03;;
81201;SDS011;71068;47.662;-2.750;2023-07-13T07:56:55;4.97;;;2.25;;
81201;SDS011;71068;47.662;-2.750;2023-07-13T07:59:21;5.15;;;1.75;;
81201;SDS011;71068;47.662;-2.750;2023-07-13T08:01:47;3.97;;;1.60;;
81201;SDS011;71068;47.662;-2.750;2023-07-13T08:04:16;3.03;;;1.73;;
81201;SDS011;71068;47.662;-2.750;2023-07-13T08:06:42;6.65;;;1.50;;
81201;SDS011;71068;47.662;-2.750;2023-07-13T08:09:08;5.13;;;1.40;;
81201;SDS011;71068;47.662;-2.750;2023-07-13T08:11:36;5.95;;;1.70;;
81201;SDS011;71068;47.662;-2.750;2023-07-13T08:14:03;4.95;;;1.55;;
81201;SDS011;71068;47.662;-2.750;2023-07-13T08:16:31;3.05;;;1.17;;
81201;SDS011;71068;47.662;-2.750;2023-07-13T08:18:57;5.72;;;1.70;;
81201;SDS011;71068;47.662;-2.750;2023-07-13T08:21:24;6.13;;;1.52;;
81201;SDS011;71068;47.662;-2.750;2023-07-13T08:23:51;3.67;;;1.33;;
81201;SDS011;71068;47.662;-2.750;2023-07-13T08:26:17;4.00;;;1.60;;
81201;SDS011;71068;47.662;-2.750;2023-07-13T08:28:44;2.80;;;1.55;;
81201;SDS011;71068;47.662;-2.750;2023-07-13T08:31:10;2.80;;;1.35;;
81201;SDS011;71068;47.662;-2.750;2023-07-13T08:33:37;4.28;;;1.48;;
81201;SDS011;71068;47.662;-2.750;2023-07-13T08:36:03;5.15;;;1.48;;
81201;SDS011;71068;47.662;-2.750;2023-07-13T08:38:30;9.00;;;1.65;;
81201;SDS011;71068;47.662;-2.750;2023-07-13T08:40:56;4.88;;;1.42;;
81201;SDS011;71068;47.662;-2.750;2023-07-13T08:43:27;9.50;;;1.45;;
81201;SDS011;71068;47.662;-2.750;2023-07-13T08:48:37;10.02;;;1.33;;
81201;SDS011;71068;47.662;-2.750;2023-07-13T08:54:34;2.90;;;1.52;;
81201;SDS011;71068;47.662;-2.750;2023-07-13T08:57:20;2.15;;;1.20;;
81201;SDS011;71068;47.662;-2.750;2023-07-13T08:59:55;4.22;;;1.63;;
81201;SDS011;71068;47.662;-2.750;2023-07-13T09:05:38;5.43;;;1.40;;
81201;SDS011;71068;47.662;-2.750;2023-07-13T09:16:18;5.75;;;1.50;;
81201;SDS011;71068;47.662;-2.750;2023-07-13T09:18:52;4.45;;;1.25;;
81201;SDS011;71068;47.662;-2.750;2023-07-13T09:21:27;1.70;;;1.00;;
81201;SDS011;71068;47.662;-2.750;2023-07-13T09:27:15;1.83;;;1.02;;
81201;SDS011;71068;47.662;-2.750;2023-07-13T09:32:45;1.20;;;1.00;;
81201;SDS011;71068;47.662;-2.750;2023-07-13T09:35:22;4.95;;;0.70;;
81201;SDS011;71068;47.662;-2.750;2023-07-13T09:37:57;2.08;;;1.17;;
81201;SDS011;71068;47.662;-2.750;2023-07-13T09:40:44;1.75;;;0.90;;
81201;SDS011;71068;47.662;-2.750;2023-07-13T09:46:53;0.95;;;0.90;;
81201;SDS011;71068;47.662;-2.750;2023-07-13T09:49:23;1.77;;;1.05;;
81201;SDS011;71068;47.662;-2.750;2023-07-13T09:51:59;1.33;;;1.20;;
81201;SDS011;71068;47.662;-2.750;2023-07-13T09:54:32;1.50;;;1.40;;
81201;SDS011;71068;47.662;-2.750;2023-07-13T09:57:15;2.20;;;0.95;;
81201;SDS011;71068;47.662;-2.750;2023-07-13T09:59:47;4.50;;;1.15;;
81201;SDS011;71068;47.662;-2.750;2023-07-13T10:05:14;4.90;;;1.30;;
81201;SDS011;71068;47.662;-2.750;2023-07-13T10:10:14;3.00;;;1.33;;
81201;SDS011;71068;47.662;-2.750;2023-07-13T10:12:48;2.92;;;1.15;;
81201;SDS011;71068;47.662;-2.750;2023-07-13T10:15:17;2.53;;;1.23;;
81201;SDS011;71068;47.662;-2.750;2023-07-13T10:17:46;2.78;;;1.20;;
81201;SDS011;71068;47.662;-2.750;2023-07-13T10:20:17;2.90;;;1.25;;
81201;SDS011;71068;47.662;-2.750;2023-07-13T10:22:50;2.75;;;1.23;;
81201;SDS011;71068;47.662;-2.750;2023-07-13T10:25:38;1.05;;;0.75;;
81201;SDS011;71068;47.662;-2.750;2023-07-13T10:28:30;3.72;;;1.30;;
81201;SDS011;71068;47.662;-2.750;2023-07-13T10:31:04;2.30;;;1.20;;
81201;SDS011;71068;47.662;-2.750;2023-07-13T10:33:38;2.42;;;1.00;;
81201;SDS011;71068;47.662;-2.750;2023-07-13T10:38:54;2.15;;;1.17;;
81201;SDS011;71068;47.662;-2.750;2023-07-13T10:41:23;4.97;;;1.88;;
81201;SDS011;71068;47.662;-2.750;2023-07-13T10:43:51;4.60;;;1.00;;
81201;SDS011;71068;47.662;-2.750;2023-07-13T10:46:22;2.22;;;1.33;;
81201;SDS011;71068;47.662;-2.750;2023-07-13T10:48:58;1.33;;;1.10;;
81201;SDS011;71068;47.662;-2.750;2023-07-13T10:56:42;3.78;;;1.25;;
81201;SDS011;71068;47.662;-2.750;2023-07-13T11:01:52;1.25;;;1.00;;
81201;SDS011;71068;47.662;-2.750;2023-07-13T11:04:39;2.75;;;1.23;;
81201;SDS011;71068;47.662;-2.750;2023-07-13T11:09:59;3.72;;;1.17;;
81201;SDS011;71068;47.662;-2.750;2023-07-13T11:15:43;3.40;;;1.38;;
81201;SDS011;71068;47.662;-2.750;2023-07-13T11:18:20;1.63;;;1.10;;
81201;SDS011;71068;47.662;-2.750;2023-07-13T11:20:50;2.40;;;1.35;;
81201;SDS011;71068;47.662;-2.750;2023-07-13T11:25:47;2.65;;;1.35;;
81201;SDS011;71068;47.662;-2.750;2023-07-13T11:28:21;2.60;;;1.20;;
81201;SDS011;71068;47.662;-2.750;2023-07-13T11:33:49;3.20;;;1.25;;
81201;SDS011;71068;47.662;-2.750;2023-07-13T11:36:23;1.40;;;1.30;;
81201;SDS011;71068;47.662;-2.750;2023-07-13T11:41:53;2.53;;;1.20;;
81201;SDS011;71068;47.662;-2.750;2023-07-13T11:44:25;2.75;;;1.38;;
81201;SDS011;71068;47.662;-2.750;2023-07-13T11:46:54;1.48;;;1.10;;
81201;SDS011;71068;47.662;-2.750;2023-07-13T11:49:29;3.85;;;1.30;;
81201;SDS011;71068;47.662;-2.750;2023-07-13T11:51:59;1.92;;;1.17;;
81201;SDS011;71068;47.662;-2.750;2023-07-13T11:54:29;6.00;;;1.40;;
81201;SDS011;71068;47.662;-2.750;2023-07-13T11:56:59;2.42;;;1.20;;
81201;SDS011;71068;47.662;-2.750;2023-07-13T11:59:56;3.45;;;1.33;;
81201;SDS011;71068;47.662;-2.750;2023-07-13T12:02:36;6.63;;;1.67;;
81201;SDS011;71068;47.662;-2.750;2023-07-13T12:05:10;2.55;;;1.30;;
81201;SDS011;71068;47.662;-2.750;2023-07-13T12:07:44;1.23;;;1.00;;
81201;SDS011;71068;47.662;-2.750;2023-07-13T12:12:55;8.07;;;1.75;;
81201;SDS011;71068;47.662;-2.750;2023-07-13T12:15:38;1.65;;;1.00;;
81201;SDS011;71068;47.662;-2.750;2023-07-13T12:18:21;2.05;;;1.27;;
81201;SDS011;71068;47.662;-2.750;2023-07-13T12:20:55;1.27;;;1.17;;
81201;SDS011;71068;47.662;-2.750;2023-07-13T12:23:25;2.25;;;1.23;;
81201;SDS011;71068;47.662;-2.750;2023-07-13T12:25:56;4.95;;;1.60;;
81201;SDS011;71068;47.662;-2.750;2023-07-13T12:28:34;8.05;;;1.60;;
81201;SDS011;71068;47.662;-2.750;2023-07-13T12:31:04;1.73;;;1.23;;
81201;SDS011;71068;47.662;-2.750;2023-07-13T12:33:33;3.45;;;1.63;;
81201;SDS011;71068;47.662;-2.750;2023-07-13T12:36:00;2.80;;;1.45;;
81201;SDS011;71068;47.662;-2.750;2023-07-13T12:38:30;4.65;;;1.63;;
81201;SDS011;71068;47.662;-2.750;2023-07-13T12:40:57;5.00;;;1.30;;
81201;SDS011;71068;47.662;-2.750;2023-07-13T12:43:23;1.50;;;1.15;;
81201;SDS011;71068;47.662;-2.750;2023-07-13T12:45:59;5.70;;;1.85;;
81201;SDS011;71068;47.662;-2.750;2023-07-13T12:48:37;4.85;;;1.17;;
81201;SDS011;71068;47.662;-2.750;2023-07-13T12:51:08;2.42;;;1.45;;
81201;SDS011;71068;47.662;-2.750;2023-07-13T12:53:41;2.28;;;1.05;;
81201;SDS011;71068;47.662;-2.750;2023-07-13T12:56:23;3.00;;;1.02;;
81201;SDS011;71068;47.662;-2.750;2023-07-13T12:58:57;5.88;;;1.30;;
81201;SDS011;71068;47.662;-2.750;2023-07-13T13:01:29;2.15;;;1.25;;
81201;SDS011;71068;47.662;-2.750;2023-07-13T13:04:00;1.15;;;1.05;;
81201;SDS011;71068;47.662;-2.750;2023-07-13T13:06:33;1.75;;;1.13;;
81201;SDS011;71068;47.662;-2.750;2023-07-13T13:09:01;1.30;;;1.17;;
81201;SDS011;71068;47.662;-2.750;2023-07-13T13:11:31;2.15;;;1.45;;
81201;SDS011;71068;47.662;-2.750;2023-07-13T13:14:03;1.65;;;1.13;;
81201;SDS011;71068;47.662;-2.750;2023-07-13T13:16:32;7.05;;;1.85;;
81201;SDS011;71068;47.662;-2.750;2023-07-13T13:22:02;5.65;;;1.73;;
81201;SDS011;71068;47.662;-2.750;2023-07-13T13:24:28;5.18;;;1.50;;
81201;SDS011;71068;47.662;-2.750;2023-07-13T13:26:54;3.72;;;1.45;;
81201;SDS011;71068;47.662;-2.750;2023-07-13T13:29:24;2.13;;;0.77;;
81201;SDS011;71068;47.662;-2.750;2023-07-13T13:31:53;2.85;;;1.10;;
81201;SDS011;71068;47.662;-2.750;2023-07-13T13:34:20;3.10;;;1.10;;
81201;SDS011;71068;47.662;-2.750;2023-07-13T13:36:52;3.10;;;1.23;;
81201;SDS011;71068;47.662;-2.750;2023-07-13T13:42:01;1.35;;;1.00;;
81201;SDS011;71068;47.662;-2.750;2023-07-13T13:44:28;1.98;;;1.00;;
81201;SDS011;71068;47.662;-2.750;2023-07-13T13:46:55;1.65;;;1.00;;
81201;SDS011;71068;47.662;-2.750;2023-07-13T13:49:23;3.90;;;1.23;;
81201;SDS011;71068;47.662;-2.750;2023-07-13T13:51:53;4.53;;;1.48;;
81201;SDS011;71068;47.662;-2.750;2023-07-13T13:54:21;5.15;;;1.70;;
81201;SDS011;71068;47.662;-2.750;2023-07-13T13:59:21;6.40;;;1.55;;
81201;SDS011;71068;47.662;-2.750;2023-07-13T14:01:47;1.88;;;0.82;;
81201;SDS011;71068;47.662;-2.750;2023-07-13T14:04:20;2.50;;;1.10;;
81201;SDS011;71068;47.662;-2.750;2023-07-13T14:06:49;3.55;;;1.38;;
81201;SDS011;71068;47.662;-2.750;2023-07-13T14:09:16;3.50;;;1.38;;
81201;SDS011;71068;47.662;-2.750;2023-07-13T14:11:45;2.92;;;1.42;;
81201;SDS011;71068;47.662;-2.750;2023-07-13T14:14:16;4.05;;;1.33;;
81201;SDS011;71068;47.662;-2.750;2023-07-13T14:16:51;1.48;;;0.95;;
81201;SDS011;71068;47.662;-2.750;2023-07-13T14:19:21;2.42;;;0.90;;
81201;SDS011;71068;47.662;-2.750;2023-07-13T14:21:47;2.22;;;1.30;;
81201;SDS011;71068;47.662;-2.750;2023-07-13T14:24:15;1.75;;;1.10;;
81201;SDS011;71068;47.662;-2.750;2023-07-13T14:26:41;2.00;;;1.13;;
81201;SDS011;71068;47.662;-2.750;2023-07-13T14:29:11;1.85;;;1.13;;
81201;SDS011;71068;47.662;-2.750;2023-07-13T14:31:43;1.48;;;1.08;;
81201;SDS011;71068;47.662;-2.750;2023-07-13T14:34:11;1.23;;;0.95;;
81201;SDS011;71068;47.662;-2.750;2023-07-13T14:36:45;1.20;;;0.90;;
81201;SDS011;71068;47.662;-2.750;2023-07-13T14:39:15;1.40;;;0.95;;
81201;SDS011;71068;47.662;-2.750;2023-07-13T14:41:49;0.80;;;0.80;;
81201;SDS011;71068;47.662;-2.750;2023-07-13T14:44:20;2.38;;;1.35;;
81201;SDS011;71068;47.662;-2.750;2023-07-13T14:46:50;3.95;;;1.20;;
81201;SDS011;71068;47.662;-2.750;2023-07-13T14:49:23;1.42;;;1.20;;
81201;SDS011;71068;47.662;-2.750;2023-07-13T14:54:42;4.07;;;1.45;;
81201;SDS011;71068;47.662;-2.750;2023-07-13T14:57:20;3.17;;;1.65;;
81201;SDS011;71068;47.662;-2.750;2023-07-13T14:59:46;2.65;;;1.50;;
81201;SDS011;71068;47.662;-2.750;2023-07-13T15:02:28;2.28;;;1.13;;
81201;SDS011;71068;47.662;-2.750;2023-07-13T15:05:25;4.75;;;1.48;;
81201;SDS011;71068;47.662;-2.750;2023-07-13T15:08:00;2.08;;;1.20;;
81201;SDS011;71068;47.662;-2.750;2023-07-13T15:10:30;1.67;;;1.05;;
81201;SDS011;71068;47.662;-2.750;2023-07-13T15:13:01;2.08;;;1.02;;
81201;SDS011;71068;47.662;-2.750;2023-07-13T15:15:50;3.38;;;0.93;;
81201;SDS011;71068;47.662;-2.750;2023-07-13T15:18:18;2.45;;;1.75;;
81201;SDS011;71068;47.662;-2.750;2023-07-13T15:20:48;2.55;;;1.25;;
81201;SDS011;71068;47.662;-2.750;2023-07-13T15:23:17;2.25;;;1.23;;
81201;SDS011;71068;47.662;-2.750;2023-07-13T15:28:14;7.18;;;1.50;;
81201;SDS011;71068;47.662;-2.750;2023-07-13T15:30:45;4.40;;;1.50;;
81201;SDS011;71068;47.662;-2.750;2023-07-13T15:33:18;2.10;;;1.60;;
81201;SDS011;71068;47.662;-2.750;2023-07-13T15:35:55;2.40;;;1.35;;
81201;SDS011;71068;47.662;-2.750;2023-07-13T15:38:24;5.88;;;1.48;;
81201;SDS011;71068;47.662;-2.750;2023-07-13T15:40:55;2.55;;;1.20;;
81201;SDS011;71068;47.662;-2.750;2023-07-13T15:43:22;3.95;;;1.20;;
81201;SDS011;71068;47.662;-2.750;2023-07-13T15:45:49;2.00;;;1.25;;
81201;SDS011;71068;47.662;-2.750;2023-07-13T15:48:22;3.17;;;1.40;;
81201;SDS011;71068;47.662;-2.750;2023-07-13T15:50:53;2.67;;;1.50;;
81201;SDS011;71068;47.662;-2.750;2023-07-13T15:53:25;1.88;;;1.23;;
81201;SDS011;71068;47.662;-2.750;2023-07-13T15:55:57;3.05;;;1.20;;
81201;SDS011;71068;47.662;-2.750;2023-07-13T15:58:24;5.40;;;1.58;;
81201;SDS011;71068;47.662;-2.750;2023-07-13T16:00:51;1.77;;;1.35;;
81201;SDS011;71068;47.662;-2.750;2023-07-13T16:03:21;1.98;;;1.20;;
81201;SDS011;71068;47.662;-2.750;2023-07-13T16:05:48;4.43;;;1.85;;
81201;SDS011;71068;47.662;-2.750;2023-07-13T16:08:19;4.13;;;1.67;;
81201;SDS011;71068;47.662;-2.750;2023-07-13T16:10:54;1.90;;;1.48;;
81201;SDS011;71068;47.662;-2.750;2023-07-13T16:13:22;2.80;;;1.50;;
81201;SDS011;71068;47.662;-2.750;2023-07-13T16:18:21;2.67;;;1.40;;
81201;SDS011;71068;47.662;-2.750;2023-07-13T16:20:47;1.45;;;1.33;;
81201;SDS011;71068;47.662;-2.750;2023-07-13T16:23:15;6.88;;;1.50;;
81201;SDS011;71068;47.662;-2.750;2023-07-13T16:28:11;3.47;;;1.27;;